^^
Paulen-Weather Station Historical Data
Daily Summary for May 31, 2022 Units:  English    Metric   Both
Daily Weekly Monthly Yearly Custom
  High: Low: Average:
Temperature: 57.2 °F 48.2 °F 51.1 °F
Dew Point: 50 °F 44.6 °F 46 °F
Humidity: 92% 71% 84%
Wind Speed: 6.2mph 0mph 1.9mph
Wind Gust: 5.6mph - -
Wind- - NNW
Pressure: 30 in 29.9 in -
Precipitation: 0.01 in    
Historical Graphs
 
 
Tabular Data for May 31, 2022
Time Temperature Dew Point Pressure Wind Wind Speed Wind Gust Humidity Rainfall Rate (Hourly) solar
00:04 50 °F 44.6 °F 30 in Calm     83% 0 in 0 W/m2
00:09 50 °F 44.6 °F 30 in W 0.6 mph   83% 0 in 0 W/m2
00:14 50 °F 44.6 °F 30 in NW 0.6 mph 0.6 mph 83% 0 in 0 W/m2
00:19 50 °F 44.6 °F 30 in N 1.2 mph 0.6 mph 83% 0 in 0 W/m2
00:24 50 °F 44.6 °F 30 in N 1.9 mph 0.6 mph 83% 0 in 0 W/m2
00:29 50 °F 44.6 °F 30 in NNW 2.5 mph 1.2 mph 82% 0 in 0 W/m2
00:34 50 °F 44.6 °F 30 in N 1.9 mph 0.6 mph 82% 0 in 0 W/m2
00:39 50 °F 44.6 °F 30 in NW 1.9 mph 1.2 mph 82% 0 in 0 W/m2
00:44 50 °F 44.6 °F 30 in N 2.5 mph 1.9 mph 82% 0 in 0 W/m2
00:49 50 °F 44.6 °F 30 in NNW 1.9 mph 1.2 mph 82% 0 in 0 W/m2
00:54 50 °F 44.6 °F 30 in NW 1.2 mph 0.6 mph 82% 0 in 0 W/m2
00:59 50 °F 44.6 °F 30 in NNW 2.5 mph 1.2 mph 83% 0 in 0 W/m2
01:04 50 °F 44.6 °F 30 in NNW 0.6 mph   83% 0 in 0 W/m2
01:09 50 °F 44.6 °F 30 in NNW 2.5 mph 1.9 mph 83% 0 in 0 W/m2
01:14 50 °F 44.6 °F 30 in NW 0.6 mph 0.6 mph 83% 0 in 0 W/m2
01:19 50 °F 44.6 °F 30 in NW 1.2 mph 0.6 mph 83% 0 in 0 W/m2
01:24 50 °F 44.6 °F 30 in NW 1.2 mph 0.6 mph 83% 0 in 0 W/m2
01:29 50 °F 44.6 °F 30 in NW 1.2 mph 0.6 mph 83% 0 in 0 W/m2
01:34 50 °F 44.6 °F 30 in NNW 1.9 mph 1.2 mph 84% 0 in 0 W/m2
01:39 50 °F 44.6 °F 30 in NNW 2.5 mph 1.2 mph 84% 0 in 0 W/m2
01:44 50 °F 44.6 °F 30 in NW 1.2 mph 0.6 mph 84% 0 in 0 W/m2
01:49 50 °F 44.6 °F 30 in NW 1.2 mph 0.6 mph 85% 0 in 0 W/m2
01:54 50 °F 44.6 °F 30 in NW 1.2 mph 1.2 mph 85% 0 in 0 W/m2
01:59 50 °F 44.6 °F 30 in N 3.1 mph 2.5 mph 85% 0 in 0 W/m2
02:04 50 °F 44.6 °F 30 in N 3.1 mph 3.1 mph 86% 0 in 0 W/m2
02:09 50 °F 44.6 °F 30 in N 3.7 mph 2.5 mph 86% 0 in 0 W/m2
02:14 50 °F 44.6 °F 30 in N 3.1 mph 2.5 mph 86% 0 in 0 W/m2
02:19 50 °F 46.4 °F 30 in N 1.2 mph 1.2 mph 86% 0 in 0 W/m2
02:24 50 °F 44.6 °F 30 in N 1.2 mph 0.6 mph 86% 0 in 0 W/m2
02:29 50 °F 46.4 °F 30 in N 1.2 mph 0.6 mph 86% 0 in 0 W/m2
02:34 50 °F 46.4 °F 30 in Calm   0.6 mph 87% 0 in 0 W/m2
02:39 50 °F 46.4 °F 30 in N 1.2 mph 0.6 mph 87% 0 in 0 W/m2
02:44 50 °F 46.4 °F 30 in NNW 2.5 mph 1.2 mph 87% 0 in 0 W/m2
02:49 50 °F 44.6 °F 30 in N 1.9 mph 0.6 mph 87% 0 in 0 W/m2
02:54 50 °F 44.6 °F 30 in NNW 3.1 mph 1.2 mph 87% 0 in 0 W/m2
02:59 50 °F 44.6 °F 30 in NNW 3.7 mph 2.5 mph 86% 0 in 0 W/m2
03:04 50 °F 44.6 °F 30 in NNW 3.1 mph 2.5 mph 86% 0 in 0 W/m2
03:09 50 °F 44.6 °F 30 in N 2.5 mph 1.9 mph 85% 0 in 0 W/m2
03:14 50 °F 44.6 °F 30 in N 4.3 mph 4.3 mph 85% 0 in 0 W/m2
03:19 50 °F 44.6 °F 30 in N 4.3 mph 3.1 mph 85% 0 in 0 W/m2
03:24 50 °F 44.6 °F 30 in N 3.7 mph 3.1 mph 85% 0 in 0 W/m2
03:29 50 °F 44.6 °F 30 in N 3.7 mph 3.1 mph 85% 0 in 0 W/m2
03:34 50 °F 44.6 °F 30 in N 3.1 mph 3.1 mph 85% 0 in 0 W/m2
03:39 50 °F 44.6 °F 30 in N 3.7 mph 3.1 mph 84% 0 in 0 W/m2
03:44 50 °F 44.6 °F 30 in N 3.1 mph 2.5 mph 84% 0 in 0 W/m2
03:49 50 °F 44.6 °F 30 in N 3.7 mph 2.5 mph 84% 0 in 0 W/m2
03:54 50 °F 44.6 °F 30 in N 3.1 mph 2.5 mph 84% 0 in 0 W/m2
03:59 50 °F 44.6 °F 30 in NNW 3.1 mph 1.2 mph 84% 0 in 0 W/m2
04:04 50 °F 44.6 °F 30 in NNW 1.2 mph 0.6 mph 83% 0 in 0 W/m2
04:09 50 °F 44.6 °F 30 in N 1.9 mph 1.2 mph 83% 0 in 0 W/m2
04:14 50 °F 44.6 °F 30 in Calm     84% 0 in 0 W/m2
04:19 50 °F 44.6 °F 30 in Calm     84% 0 in 0 W/m2
04:24 50 °F 44.6 °F 30 in NNW 0.6 mph   84% 0 in 0 W/m2
04:29 50 °F 44.6 °F 30 in Calm     84% 0 in 0 W/m2
04:34 50 °F 44.6 °F 30 in NNW 0.6 mph   84% 0 in 0 W/m2
04:39 50 °F 44.6 °F 30 in Calm     84% 0 in 0 W/m2
04:44 50 °F 44.6 °F 30 in Calm     84% 0 in 0 W/m2
04:49 50 °F 44.6 °F 30 in NNW 0.6 mph 0.6 mph 84% 0 in 0 W/m2
04:54 50 °F 44.6 °F 30 in NNW 1.2 mph 0.6 mph 84% 0 in 0 W/m2
04:59 50 °F 44.6 °F 30 in N 0.6 mph 0.6 mph 84% 0 in 0 W/m2
05:04 50 °F 44.6 °F 30 in NW 0.6 mph   84% 0 in 5 W/m2
05:09 50 °F 44.6 °F 30 in NW 1.2 mph 0.6 mph 84% 0 in 5 W/m2
05:14 50 °F 46.4 °F 30 in N 0.6 mph 0.6 mph 85% 0 in 0 W/m2
05:19 50 °F 46.4 °F 30 in N 1.9 mph 1.2 mph 85% 0 in 0 W/m2
05:24 50 °F 46.4 °F 30 in N 1.9 mph 1.9 mph 85% 0 in 0 W/m2
05:29 50 °F 46.4 °F 30 in N 1.9 mph 1.2 mph 85% 0 in 5 W/m2
05:34 50 °F 46.4 °F 30 in N 1.9 mph 0.6 mph 86% 0 in 7 W/m2
05:39 50 °F 46.4 °F 30 in N 1.9 mph 0.6 mph 87% 0 in 7 W/m2
05:44 50 °F 46.4 °F 30 in N 1.2 mph 0.6 mph 87% 0 in 7 W/m2
05:49 50 °F 46.4 °F 30 in N 1.9 mph 1.9 mph 88% 0 in 9 W/m2
05:54 50 °F 46.4 °F 30 in N 2.5 mph 1.9 mph 89% 0.01 in 12 W/m2
05:59 50 °F 46.4 °F 30 in NNW 2.5 mph 1.9 mph 89% 0.01 in 21 W/m2
06:04 50 °F 46.4 °F 30 in NW 2.5 mph 1.2 mph 90% 0.01 in 30 W/m2
06:09 48.2 °F 46.4 °F 30 in NNW 1.9 mph 1.2 mph 90% 0.01 in 39 W/m2
06:14 48.2 °F 46.4 °F 30 in N 3.1 mph 1.9 mph 91% 0.01 in 49 W/m2
06:19 48.2 °F 46.4 °F 30 in N 2.5 mph 1.2 mph 91% 0.01 in 65 W/m2
06:24 48.2 °F 46.4 °F 30 in Calm     91% 0.01 in 86 W/m2
06:29 48.2 °F 46.4 °F 30 in Calm     91% 0.01 in 88 W/m2
06:34 48.2 °F 46.4 °F 30 in Calm     92% 0.01 in 125 W/m2
06:39 48.2 °F 46.4 °F 30 in NNW 2.5 mph 2.5 mph 91% 0.01 in 125 W/m2
06:44 50 °F 46.4 °F 30 in N 4.3 mph 3.1 mph 90% 0.01 in 116 W/m2
06:49 50 °F 46.4 °F 30 in N 3.7 mph 2.5 mph 89% 0.01 in 113 W/m2
06:54 50 °F 46.4 °F 30 in N 3.7 mph 3.1 mph 89% 0.01 in 111 W/m2
06:59 50 °F 46.4 °F 29.9 in N 5.6 mph 5.6 mph 89% 0 in 128 W/m2
07:04 50 °F 46.4 °F 30 in N 5.6 mph 5 mph 88% 0 in 139 W/m2
07:09 50 °F 46.4 °F 30 in N 6.2 mph 5.6 mph 87% 0 in 137 W/m2
07:14 50 °F 46.4 °F 30 in N 6.2 mph 5.6 mph 87% 0 in 118 W/m2
07:19 50 °F 46.4 °F 29.9 in N 5 mph 5 mph 86% 0 in 93 W/m2
07:24 51.8 °F 46.4 °F 29.9 in N 3.7 mph 3.7 mph 86% 0 in 100 W/m2
07:29 51.8 °F 48.2 °F 29.9 in N 3.1 mph 2.5 mph 86% 0 in 100 W/m2
07:34 51.8 °F 48.2 °F 29.9 in N 1.9 mph 1.2 mph 86% 0 in 107 W/m2
07:39 51.8 °F 48.2 °F 29.9 in N 3.7 mph 2.5 mph 85% 0 in 139 W/m2
07:44 51.8 °F 46.4 °F 29.9 in N 3.1 mph 2.5 mph 84% 0 in 162 W/m2
07:49 51.8 °F 46.4 °F 29.9 in N 3.1 mph 1.9 mph 83% 0 in 171 W/m2
07:54 51.8 °F 46.4 °F 29.9 in N 1.9 mph 1.2 mph 82% 0 in 176 W/m2
07:59 51.8 °F 46.4 °F 29.9 in N 3.1 mph 1.9 mph 81% 0 in 197 W/m2
08:04 53.6 °F 46.4 °F 29.9 in N 2.5 mph 1.9 mph 80% 0 in 364 W/m2
08:09 53.6 °F 48.2 °F 29.9 in N 1.9 mph 0.6 mph 80% 0 in 364 W/m2
08:14 53.6 °F 48.2 °F 29.9 in N 0.6 mph   81% 0 in 311 W/m2
08:19 53.6 °F 48.2 °F 29.9 in N 1.9 mph 1.2 mph 80% 0 in 230 W/m2
08:24 53.6 °F 48.2 °F 29.9 in N 0.6 mph   80% 0 in 283 W/m2
08:29 53.6 °F 48.2 °F 29.9 in NNW 0.6 mph 0.6 mph 79% 0 in 295 W/m2
08:34 55.4 °F 48.2 °F 29.9 in NNW 1.2 mph 0.6 mph 78% 0 in 413 W/m2
08:39 55.4 °F 48.2 °F 29.9 in NNW 1.2 mph   76% 0 in 413 W/m2
08:44 55.4 °F 48.2 °F 29.9 in Calm     76% 0 in 610 W/m2
08:49 57.2 °F 50 °F 29.9 in Calm     76% 0 in 566 W/m2
08:54 57.2 °F 48.2 °F 29.9 in NNW 0.6 mph 0.6 mph 73% 0 in 513 W/m2
08:59 57.2 °F 48.2 °F 29.9 in N 0.6 mph 0.6 mph 71% 0 in 272 W/m2
09:04 57.2 °F 48.2 °F 29.9 in Calm     72% 0 in 635 W/m2
09:09 57.2 °F 50 °F 29.9 in N 0.6 mph   73% 0 in 640 W/m2
09:14 57.2 °F 50 °F 29.9 in NNW 0.6 mph   73% 0 in 410 W/m2
09:19 57.2 °F 50 °F 29.9 in ESE 1.2 mph 0.6 mph 74% 0 in 457 W/m2
09:24 57.2 °F 50 °F 29.9 in ENE 1.9 mph 0.6 mph 76% 0 in 369 W/m2
09:29 57.2 °F 50 °F 29.9 in N 0.6 mph 1.2 mph 76% 0 in 216 W/m2
09:34 57.2 °F 50 °F 29.9 in N 1.2 mph 1.2 mph 75% 0 in 232 W/m2
09:39 57.2 °F 50 °F 29.9 in Calm     77% 0 in 265 W/m2
09:44 57.2 °F 50 °F 29.9 in N 0.6 mph 0.6 mph 77% 0 in 304 W/m2
09:49 57.2 °F 50 °F 29.9 in N 0.6 mph   77% 0 in 318 W/m2
Compliments of Weather Underground - 2 mb